Terminal Aerodrome Forecast
Issued by NWS Pueblo, CO

Home | Current Version | Previous Version | Text Only | Print | Product List | Glossary On
Versions: 1 2 3 4 5 6 7 8 9 10 11 12 13 14 15 16 17 18 19 20 21 22 23 24 25 26 27 28
038
FTUS45 KPUB 221729
TAFPUB
TAF
KPUB 221729Z 2218/2318 VRB06KT P6SM SCT030
     FM222000 15008KT P6SM SCT030 SCT100
     FM222300 15010KT P6SM VCTS SCT030CB BKN120
     FM230200 10008KT P6SM SCT030 BKN120
     FM230600 04007KT P6SM SCT030 BKN120
     FM231100 VRB04KT P6SM SCT010 BKN200=

USA.gov is the U.S. government's official web portal to all federal, state and local government web resources and services.